Time;durP1;ratioP1;P1;durP2;ratioP2;P2;SDS_P1;SDS_P2;PMS_P1;PMS_P2;Temp;Humidity;BMP_temperature;BMP_pressure;BME280_temperature;BME280_humidity;BME280_pressure;Samples;Min_cycle;Max_cycle;Signal;HPM_P1;HPM_P2
2022/09/16 00:01:57;;;;;;;9.55;1.67;;;;;;;;;;6343632;22;20042;-87
2022/09/16 00:11:58;;;;;;;14.90;1.50;;;11.40;99.90;;;;;;6345653;22;20018;-86
2022/09/16 00:17:34;;;;;;;8.90;1.50;;;;;;;;;;6339360;22;20029;-87
2022/09/16 00:20:00;;;;;;;8.65;1.40;;;;;;;;;;6337609;22;20531;-86
2022/09/16 00:42:41;;;;;;;12.60;1.55;;;;;;;;;;6306019;22;20038;-85
2022/09/16 00:45:15;;;;;;;18.23;1.77;;;;;;;;;;6280246;22;20069;-83
2022/09/16 00:47:53;;;;;;;10.23;1.25;;;;;;;;;;6276204;22;20078;-87
2022/09/16 00:53:40;;;;;;;13.07;2.33;;;;;;;;;;6310359;22;20073;-89
2022/09/16 01:09:44;;;;;;;13.70;1.80;;;;;;;;;;6341158;22;20258;-84
2022/09/16 01:12:23;;;;;;;7.18;1.27;;;;;;;;;;6310986;22;20027;-85
2022/09/16 01:17:57;;;;;;;9.80;1.70;;;;;;;;;;6311128;22;20136;-85
2022/09/16 01:23:20;;;;;;;6.10;1.30;;;;;;;;;;6311477;22;20026;-85
2022/09/16 01:43:02;;;;;;;13.30;1.55;;;;;;;;;;6313129;22;20114;-86
2022/09/16 01:48:44;;;;;;;16.10;1.95;;;;;;;;;;6303550;22;20031;-87
2022/09/16 01:57:34;;;;;;;11.98;1.35;;;;;;;;;;6316636;22;20313;-88
2022/09/16 02:00:20;;;;;;;12.10;1.50;;;;;;;;;;6262449;22;20401;-86
2022/09/16 02:03:45;;;;;;;10.65;1.95;;;11.70;99.90;;;;;;6289609;22;20031;-86
2022/09/16 02:09:43;;;;;;;13.95;2.13;;;;;;;;;;6290586;22;20066;-86
2022/09/16 02:14:55;;;;;;;12.57;2.22;;;;;;;;;;6312338;22;20052;-87
2022/09/16 02:21:31;;;;;;;16.27;1.77;;;11.40;99.90;;;;;;6280928;22;20058;-86
2022/09/16 02:29:55;;;;;;;13.70;1.60;;;;;;;;;;6306396;22;20056;-86
2022/09/16 02:32:23;;;;;;;11.23;1.75;;;;;;;;;;6306073;22;20027;-87
2022/09/16 02:35:08;;;;;;;8.00;1.50;;;;;;;;;;6306821;22;20023;-86
2022/09/16 02:40:27;;;;;;;15.50;2.13;;;;;;;;;;6282899;22;20020;-86
2022/09/16 02:42:53;;;;;;;15.20;2.95;;;;;;;;;;6283408;22;20035;-85
2022/09/16 02:45:24;;;;;;;14.30;1.65;;;;;;;;;;6282808;22;20390;-85
2022/09/16 02:51:26;;;;;;;19.92;1.80;;;;;;;;;;6278836;22;20020;-86
2022/09/16 02:53:54;;;;;;;18.88;2.28;;;;;;;;;;6310194;22;20076;-87
2022/09/16 03:10:53;;;;;;;10.52;1.52;;;;;;;;;;6310318;22;20010;-86
2022/09/16 03:13:27;;;;;;;18.08;2.28;;;;;;;;;;6286794;22;20054;-86
2022/09/16 03:25:48;;;;;;;14.50;2.15;;;;;;;;;;6254370;22;20031;-87
2022/09/16 03:38:20;;;;;;;16.30;1.80;;;;;;;;;;6323269;22;20053;-86
2022/09/16 03:40:47;;;;;;;9.73;1.70;;;;;;;;;;6314927;22;20092;-86
2022/09/16 03:43:17;;;;;;;11.32;1.58;;;;;;;;;;6289013;22;20026;-87
2022/09/16 03:45:54;;;;;;;;;;;;;;;;;;;;;
2022/09/16 03:50:59;;;;;;;11.13;1.50;;;;;;;;;;6327134;22;20014;-87
2022/09/16 03:56:02;;;;;;;10.82;1.60;;;;;;;;;;6339853;22;20019;-87
2022/09/16 03:58:53;;;;;;;17.77;2.15;;;;;;;;;;6342349;22;20022;-87
2022/09/16 04:10:24;;;;;;;20.20;1.70;;;;;;;;;;6336552;22;20029;-84
2022/09/16 04:13:02;;;;;;;16.08;2.13;;;;;;;;;;6307182;22;20097;-83
2022/09/16 04:16:09;;;;;;;14.35;2.42;;;;;;;;;;6335216;22;20022;-84
2022/09/16 04:18:35;;;;;;;15.88;2.70;;;;;;;;;;6339179;22;20055;-84
2022/09/16 04:27:38;;;;;;;17.73;1.75;;;;;;;;;;6246093;22;20380;-85
2022/09/16 04:30:04;;;;;;;21.48;1.98;;;;;;;;;;6214081;22;20024;-86
2022/09/16 04:32:30;;;;;;;13.68;2.15;;;;;;;;;;6342573;22;20034;-87
2022/09/16 04:35:00;;;;;;;17.52;2.83;;;;;;;;;;6321974;22;20032;-85
2022/09/16 04:40:33;;;;;;;22.73;2.45;;;;;;;;;;6342847;22;20030;-86
2022/09/16 04:42:59;;;;;;;12.82;2.25;;;;;;;;;;6346067;22;20068;-86
2022/09/16 04:45:27;;;;;;;10.93;1.75;;;;;;;;;;6265318;22;20014;-85
2022/09/16 04:48:00;;;;;;;16.63;2.05;;;;;;;;;;6294129;22;20026;-83
2022/09/16 05:00:13;;;;;;;7.97;1.30;;;;;;;;;;6343400;22;20287;-84
2022/09/16 05:08:13;;;;;;;11.95;2.03;;;;;;;;;;6340173;22;20108;-83
2022/09/16 05:10:47;;;;;;;16.38;1.98;;;;;;;;;;6313229;22;20072;-84
2022/09/16 05:13:33;;;;;;;15.32;1.60;;;;;;;;;;6314428;22;20018;-83
2022/09/16 05:25:54;;;;;;;13.60;1.85;;;;;;;;;;6322241;22;20681;-85
2022/09/16 05:42:03;;;;;;;17.92;1.95;;;;;;;;;;6313441;22;20026;-85
2022/09/16 05:48:11;;;;;;;11.32;2.08;;;;;;;;;;6300512;22;20137;-84
2022/09/16 05:50:37;;;;;;;12.55;1.88;;;;;;;;;;6302689;22;20448;-85
2022/09/16 05:53:03;;;;;;;15.45;1.55;;;;;;;;;;6250752;22;20094;-84
2022/09/16 05:58:40;;;;;;;15.63;1.90;;;;;;;;;;6307347;22;20027;-84
2022/09/16 06:08:24;;;;;;;29.15;2.75;;;;;;;;;;6318681;22;20110;-84
2022/09/16 06:11:15;;;;;;;18.30;2.58;;;;;;;;;;6257466;22;20023;-84
2022/09/16 06:13:41;;;;;;;16.50;2.17;;;;;;;;;;6282539;22;20023;-86
2022/09/16 06:26:23;;;;;;;18.17;1.85;;;;;;;;;;6304541;22;20521;-86
2022/09/16 06:43:50;;;;;;;17.00;3.08;;;11.60;99.90;;;;;;6337706;22;20507;-86
2022/09/16 06:56:04;;;;;;;10.35;2.00;;;;;;;;;;6338812;22;20058;-84
2022/09/16 07:11:43;;;;;;;8.15;2.05;;;;;;;;;;6202926;23;20027;-87
2022/09/16 07:17:32;;;;;;;9.73;1.40;;;;;;;;;;6268661;22;20030;-86
2022/09/16 07:19:59;;;;;;;7.88;1.35;;;;;;;;;;6218047;22;21574;-86
2022/09/16 07:27:51;;;;;;;16.38;3.10;;;;;;;;;;6311340;22;20309;-85
2022/09/16 07:56:05;;;;;;;18.05;2.67;;;;;;;;;;6298781;22;20022;-85
2022/09/16 07:58:31;;;;;;;9.77;1.98;;;;;;;;;;6276610;22;20098;-87
2022/09/16 08:04:55;;;;;;;14.65;2.45;;;;;;;;;;6294808;22;20038;-86
2022/09/16 08:21:14;;;;;;;14.27;1.67;;;;;;;;;;6294829;22;20034;-83
2022/09/16 08:34:12;;;;;;;8.70;1.58;;;;;;;;;;6262124;22;20035;-83
2022/09/16 08:40:43;;;;;;;8.63;1.67;;;15.40;99.90;;;;;;6300705;22;20039;-85
2022/09/16 08:46:30;;;;;;;10.65;2.05;;;;;;;;;;6305355;22;20019;-86
2022/09/16 08:49:00;;;;;;;9.82;2.08;;;;;;;;;;6242176;22;20022;-85
2022/09/16 08:57:06;;;;;;;14.65;2.60;;;;;;;;;;6303473;22;20455;-88
2022/09/16 09:26:27;;;;;;;11.25;1.73;;;;;;;;;;6241862;22;20027;-83
2022/09/16 09:39:37;;;;;;;20.95;2.95;;;;;;;;;;6266769;22;20162;-82
2022/09/16 09:59:35;;;;;;;13.48;1.58;;;;;;;;;;6286742;22;20022;-83
2022/09/16 10:02:02;;;;;;;14.93;2.45;;;;;;;;;;6255669;22;20043;-84
2022/09/16 10:21:10;;;;;;;17.05;1.75;;;;;;;;;;6264480;22;20414;-84
2022/09/16 10:23:39;;;;;;;14.02;1.70;;;;;;;;;;6272802;22;20015;-84
2022/09/16 10:26:23;;;;;;;8.90;2.10;;;;;;;;;;6299820;22;20081;-84
2022/09/16 10:29:08;;;;;;;14.88;1.52;;;;;;;;;;6300022;22;20019;-83
2022/09/16 10:38:00;;;;;;;8.23;1.25;;;;;;;;;;6304234;22;20022;-84
2022/09/16 10:44:18;;;;;;;13.38;1.45;;;;;;;;;;6300004;22;20417;-83
2022/09/16 10:46:52;;;;;;;15.48;2.70;;;;;;;;;;6246824;22;20084;-84
2022/09/16 10:49:24;;;;;;;;;;;;;;;;;;6248586;22;20037;-83
2022/09/16 11:02:25;;;;;;;12.68;2.63;;;;;;;;;;6304953;22;20081;-85
2022/09/16 11:04:53;;;;;;;10.60;2.00;;;;;;;;;;6249492;22;20019;-85
2022/09/16 11:24:09;;;;;;;8.65;2.00;;;;;;;;;;6304085;22;19929;-85
2022/09/16 11:41:17;;;;;;;21.00;2.72;;;;;;;;;;6337156;22;20045;-85
2022/09/16 11:52:03;;;;;;;23.33;3.55;;;16.50;99.90;;;;;;6311823;22;20412;-85
2022/09/16 12:04:40;;;;;;;17.17;4.28;;;;;;;;;;6234823;23;20024;-85
2022/09/16 12:19:36;;;;;;;19.52;3.72;;;;;;;;;;6242408;23;20476;-85
2022/09/16 12:26:29;;;;;;;13.85;2.58;;;;;;;;;;6270114;22;20343;-85
2022/09/16 12:32:37;;;;;;;18.65;2.90;;;;;;;;;;6301537;22;20049;-84
2022/09/16 12:45:53;;;;;;;11.20;1.73;;;;;;;;;;6265625;22;20100;-86
2022/09/16 12:48:27;;;;;;;9.43;1.83;;;;;;;;;;6278801;22;20027;-84
2022/09/16 12:50:59;;;;;;;13.93;2.22;;;;;;;;;;6284722;22;20022;-84
2022/09/16 12:53:45;;;;;;;9.40;1.40;;;;;;;;;;6305461;22;20023;-85
2022/09/16 13:03:37;;;;;;;9.50;2.10;;;;;;;;;;6293267;22;20089;-86
2022/09/16 13:06:07;;;;;;;6.97;1.65;;;;;;;;;;6232760;22;20015;-85
2022/09/16 13:08:34;;;;;;;8.05;1.77;;;;;;;;;;6338902;22;20022;-86
2022/09/16 13:11:03;;;;;;;12.10;1.45;;;;;;;;;;6338279;22;20018;-87
2022/09/16 13:13:42;;;;;;;9.32;1.10;;;;;;;;;;6308820;22;20019;-86
2022/09/16 13:16:52;;;;;;;8.63;2.22;;;;;;;;;;6310714;22;20011;-85
2022/09/16 13:19:21;;;;;;;10.40;1.67;;;;;;;;;;6334296;22;20011;-84
2022/09/16 13:21:48;;;;;;;10.18;1.88;;;;;;;;;;6335222;22;20352;-83
2022/09/16 13:24:44;;;;;;;13.93;1.73;;;;;;;;;;6243797;22;20026;-85
2022/09/16 13:27:29;;;;;;;11.65;2.25;;;;;;;;;;6244377;22;20020;-84
2022/09/16 13:30:12;;;;;;;16.80;2.80;;;;;;;;;;6244129;22;20023;-84
2022/09/16 13:32:58;;;;;;;15.35;2.22;;;;;;;;;;6270653;22;20480;-84
2022/09/16 13:35:48;;;;;;;12.40;2.13;;;;;;;;;;6269771;22;20047;-84
2022/09/16 13:38:33;;;;;;;14.45;2.88;;;;;;;;;;6241504;22;20016;-85
2022/09/16 13:41:05;;;;;;;10.60;2.00;;;;;;;;;;6243798;22;20400;-86
2022/09/16 13:43:41;;;;;;;10.60;2.10;;;;;;;;;;6243209;22;20385;-86
2022/09/16 13:46:07;;;;;;;13.82;2.25;;;;;;;;;;6247657;22;20095;-84
2022/09/16 13:48:43;;;;;;;14.43;2.25;;;;;;;;;;6246915;22;20030;-84
2022/09/16 13:51:27;;;;;;;12.00;1.75;;;;;;;;;;6275346;22;20098;-84
2022/09/16 13:54:04;;;;;;;16.98;1.95;;;;;;;;;;6250225;22;20023;-85
2022/09/16 13:56:51;;;;;;;15.40;2.20;;;;;;;;;;6340419;22;20011;-85
2022/09/16 13:59:18;;;;;;;13.93;2.45;;;;;;;;;;6337612;22;20112;-86
2022/09/16 14:01:53;;;;;;;11.32;2.20;;;;;;;;;;6290708;22;20015;-85
2022/09/16 14:04:25;;;;;;;14.95;3.20;;;;;;;;;;6315312;22;20022;-85
2022/09/16 14:07:22;;;;;;;10.80;2.05;;;;;;;;;;6286174;22;20014;-84
2022/09/16 14:10:14;;;;;;;18.98;2.40;;;;;;;;;;6309736;22;20038;-85
2022/09/16 14:12:44;;;;;;;12.40;2.05;;;;;;;;;;6336511;22;20375;-84
2022/09/16 14:18:34;;;;;;;13.32;2.05;;;;;;;;;;6241087;23;20019;-84
2022/09/16 14:21:27;;;;;;;12.45;2.05;;;;;;;;;;6215486;23;20055;-84
2022/09/16 14:23:53;;;;;;;12.00;1.80;;;;;;;;;;6218562;23;20095;-87
2022/09/16 14:26:33;;;;;;;22.73;2.95;;;;;;;;;;6193346;23;20062;-85
2022/09/16 14:29:16;;;;;;;29.17;3.95;;;;;;;;;;6215399;23;20073;-84
2022/09/16 14:31:48;;;;;;;9.93;1.77;;;;;;;;;;6190154;23;20020;-84
2022/09/16 14:34:35;;;;;;;16.25;2.22;;;;;;;;;;6217825;23;20042;-86
2022/09/16 14:37:04;;;;;;;12.52;2.00;;;;;;;;;;6216842;23;20035;-87
2022/09/16 14:39:46;;;;;;;8.88;1.73;;;;;;;;;;6191766;23;20032;-86
2022/09/16 14:42:28;;;;;;;11.18;1.88;;;;;;;;;;6216668;23;20103;-86
2022/09/16 14:45:07;;;;;;;9.02;1.42;;;;;;;;;;6192735;23;20024;-86
2022/09/16 14:47:34;;;;;;;10.93;1.33;;;;;;;;;;6241995;23;20058;-87
2022/09/16 14:50:34;;;;;;;7.80;1.42;;;;;;;;;;6241257;23;20051;-87
2022/09/16 14:53:16;;;;;;;10.73;1.30;;;;;;;;;;6211101;22;20034;-87
2022/09/16 14:56:45;;;;;;;13.68;2.00;;;15.00;99.90;;;;;;6289440;22;20011;-87
2022/09/16 14:59:40;;;;;;;8.98;1.38;;;;;;;;;;6314923;22;20022;-87
2022/09/16 15:02:38;;;;;;;9.75;0.90;;;;;;;;;;6312294;22;20021;-85
2022/09/16 15:05:31;;;;;;;7.93;1.40;;;;;;;;;;6311547;22;20092;-86
2022/09/16 15:08:41;;;;;;;5.00;1.00;;;;;;;;;;6342726;22;20080;-86
2022/09/16 15:11:11;;;;;;;19.75;1.95;;;;;;;;;;6342260;22;20038;-82
2022/09/16 15:13:44;;;;;;;14.52;2.13;;;;;;;;;;6313869;22;20014;-83
2022/09/16 15:16:24;;;;;;;23.67;2.90;;;;;;;;;;6337397;22;20083;-83
2022/09/16 15:19:01;;;;;;;17.52;3.17;;;;;;;;;;6336306;22;20019;-83
2022/09/16 15:21:29;;;;;;;25.30;3.78;;;;;;;;;;6333821;22;20389;-83
2022/09/16 15:23:58;;;;;;;24.00;3.53;;;;;;;;;;6339291;22;20123;-84
2022/09/16 15:26:26;;;;;;;21.05;2.72;;;;;;;;;;6339818;22;20026;-84
2022/09/16 15:28:52;;;;;;;24.80;3.85;;;;;;;;;;6307775;22;20463;-81
2022/09/16 15:31:35;;;;;;;35.45;3.75;;;;;;;;;;6333385;22;20019;-83
2022/09/16 15:34:19;;;;;;;22.65;2.97;;;;;;;;;;6309278;22;20027;-83
2022/09/16 15:36:45;;;;;;;45.03;4.25;;;;;;;;;;6340777;22;20090;-82
2022/09/16 15:39:31;;;;;;;25.30;3.13;;;;;;;;;;6338599;22;20025;-80
2022/09/16 15:42:09;;;;;;;23.33;3.95;;;;;;;;;;6339417;22;20463;-82
2022/09/16 15:44:36;;;;;;;17.50;2.30;;;;;;;;;;6310585;22;20018;-83
2022/09/16 15:47:05;;;;;;;22.75;2.35;;;;;;;;;;6340382;22;20023;-83
2022/09/16 15:49:35;;;;;;;25.17;3.67;;;;;;;;;;6285242;22;20047;-82
2022/09/16 15:52:09;;;;;;;37.50;5.38;;;;;;;;;;6311203;22;20535;-82
2022/09/16 15:54:35;;;;;;;;;;;;;;;;;;6312241;22;20018;-81
2022/09/16 15:57:28;;;;;;;31.20;3.75;;;;;;;;;;6306902;22;19993;-82
2022/09/16 16:00:11;;;;;;;35.88;4.88;;;;;;;;;;6283765;22;20026;-82
2022/09/16 16:02:40;;;;;;;31.25;3.40;;;;;;;;;;6309050;22;20463;-82
2022/09/16 16:05:27;;;;;;;28.75;3.80;;;;;;;;;;6283161;22;20129;-82
2022/09/16 16:07:56;;;;;;;20.95;2.92;;;;;;;;;;6333159;22;20355;-81
2022/09/16 16:10:34;;;;;;;26.65;3.58;;;;;;;;;;6334838;22;20023;-84
2022/09/16 16:13:09;;;;;;;14.63;1.77;;;;;;;;;;6284733;22;20584;-83
2022/09/16 16:15:36;;;;;;;9.02;1.38;;;;;;;;;;6308376;22;20481;-84
2022/09/16 16:18:03;;;;;;;7.97;1.65;;;;;;;;;;6336424;22;20093;-85
2022/09/16 16:20:42;;;;;;;10.57;1.73;;;;;;;;;;6336092;22;20056;-83
2022/09/16 16:23:10;;;;;;;11.30;1.67;;;;;;;;;;6335411;22;20015;-82
2022/09/16 16:25:36;;;;;;;21.08;1.92;;;;;;;;;;6333628;22;20027;-80
2022/09/16 16:28:02;;;;;;;11.68;1.95;;;;;;;;;;6256267;22;20340;-82
2022/09/16 16:30:28;;;;;;;13.82;1.70;;;;;;;;;;6334485;22;20018;-83
2022/09/16 16:32:54;;;;;;;20.67;3.40;;;;;;;;;;6336880;22;20015;-82
2022/09/16 16:35:21;;;;;;;23.33;2.88;;;;;;;;;;6336858;22;20019;-82
2022/09/16 16:37:50;;;;;;;21.30;2.63;;;;;;;;;;6336272;22;20015;-83
2022/09/16 16:40:23;;;;;;;26.23;3.22;;;;;;;;;;6307822;22;20084;-83
2022/09/16 16:42:55;;;;;;;25.05;3.10;;;;;;;;;;6311989;22;20025;-83
2022/09/16 16:45:30;;;;;;;33.92;3.85;;;;;;;;;;6290505;22;20098;-84
2022/09/16 16:47:56;;;;;;;37.13;3.47;;;;;;;;;;6341873;22;20042;-84
2022/09/16 16:50:22;;;;;;;28.55;3.60;;;;;;;;;;6341863;22;20071;-83
2022/09/16 16:52:52;;;;;;;30.80;3.60;;;;;;;;;;6336943;22;20011;-81
2022/09/16 16:55:21;;;;;;;19.17;2.13;;;;;;;;;;6336368;22;20034;-83
2022/09/16 16:57:47;;;;;;;20.80;3.83;;;;;;;;;;6336386;22;20026;-82
2022/09/16 17:00:13;;;;;;;17.77;2.80;;;;;;;;;;6337021;22;20025;-81
2022/09/16 17:02:40;;;;;;;24.55;3.80;;;;;;;;;;6337092;22;20019;-81
2022/09/16 17:05:06;;;;;;;22.75;3.10;;;;;;;;;;6337729;22;20015;-80
2022/09/16 17:07:32;;;;;;;29.98;3.95;;;;;;;;;;6337342;22;20034;-82
2022/09/16 17:09:58;;;;;;;23.58;3.60;;;;;;;;;;6284628;22;20458;-83
2022/09/16 17:12:25;;;;;;;27.70;2.97;;;;;;;;;;6313006;22;20018;-84
2022/09/16 17:14:51;;;;;;;23.77;2.90;;;;;;;;;;6340596;22;20010;-82
2022/09/16 17:17:17;;;;;;;21.70;4.15;;;;;;;;;;6285437;22;20101;-83
2022/09/16 17:19:43;;;;;;;23.75;2.80;;;;;;;;;;6339821;22;20025;-84
2022/09/16 17:22:10;;;;;;;23.23;2.42;;;;;;;;;;6286787;22;20434;-82
2022/09/16 17:24:36;;;;;;;23.95;2.95;;;;;;;;;;6314740;22;20026;-82
2022/09/16 17:27:03;;;;;;;29.40;3.78;;;;;;;;;;6339769;22;20346;-83
2022/09/16 17:29:35;;;;;;;18.75;3.72;;;;;;;;;;6312415;22;20014;-84
2022/09/16 17:32:01;;;;;;;24.48;2.83;;;;;;;;;;6311335;22;20058;-85
2022/09/16 17:34:27;;;;;;;24.50;3.15;;;;;;;;;;6315215;22;20014;-83
2022/09/16 17:36:54;;;;;;;30.63;3.92;;;;;;;;;;6341282;22;20019;-83
2022/09/16 17:39:21;;;;;;;24.65;3.00;;;;;;;;;;6310770;22;20011;-83
2022/09/16 17:41:47;;;;;;;25.95;3.05;;;;;;;;;;6339436;22;20018;-82
2022/09/16 17:44:14;;;;;;;35.17;3.88;;;;;;;;;;6341963;22;20046;-83
2022/09/16 17:46:49;;;;;;;23.73;3.00;;;;;;;;;;6346134;22;20020;-84
2022/09/16 17:49:20;;;;;;;25.73;3.83;;;;;;;;;;6342249;22;20037;-85
2022/09/16 17:51:52;;;;;;;37.33;4.70;;;;;;;;;;6341931;22;20027;-86
2022/09/16 17:54:18;;;;;;;78.55;6.13;;;;;;;;;;6312307;22;20048;-82
2022/09/16 17:56:44;;;;;;;39.92;3.92;;;;;;;;;;6335121;22;20054;-81
2022/09/16 17:59:11;;;;;;;30.05;3.65;;;;;;;;;;6336275;22;20094;-83
2022/09/16 18:01:37;;;;;;;34.67;4.30;;;;;;;;;;6338747;22;20014;-81
2022/09/16 18:04:03;;;;;;;21.90;3.63;;;;;;;;;;6339843;22;20026;-82
2022/09/16 18:06:37;;;;;;;20.08;3.00;;;;;;;;;;6337562;22;20090;-81
2022/09/16 18:09:04;;;;;;;30.57;4.60;;;;;;;;;;6309877;22;20519;-81
2022/09/16 18:11:30;;;;;;;23.35;4.35;;;;;;;;;;6311756;22;20030;-83
2022/09/16 18:13:57;;;;;;;26.70;3.70;;;;;;;;;;6286481;22;20803;-83
2022/09/16 18:16:27;;;;;;;22.50;3.13;;;;;;;;;;6244060;23;20084;-83
2022/09/16 18:19:09;;;;;;;31.20;3.55;;;;;;;;;;6219156;23;20060;-85
2022/09/16 18:21:36;;;;;;;25.20;4.65;;;;;;;;;;6243078;23;20016;-85
2022/09/16 18:24:03;;;;;;;42.72;4.55;;;;;;;;;;6244790;23;20027;-84
2022/09/16 18:26:30;;;;;;;38.72;5.97;;;;;;;;;;6245512;23;20493;-83
2022/09/16 18:29:00;;;;;;;39.85;5.53;;;;;;;;;;6245703;23;20020;-83
2022/09/16 18:31:27;;;;;;;40.33;5.05;;;;;;;;;;6246448;23;20020;-84
2022/09/16 18:34:02;;;;;;;35.55;4.13;;;;;;;;;;6246286;23;20360;-83
2022/09/16 18:36:33;;;;;;;28.63;4.65;;;;;;;;;;6246758;23;20020;-87
2022/09/16 18:39:02;;;;;;;31.98;4.47;;;;;;;;;;6249677;23;20055;-84
2022/09/16 18:41:34;;;;;;;20.98;3.47;;;;;;;;;;6246775;23;20016;-83
2022/09/16 18:44:07;;;;;;;21.40;2.75;;;;;;;;;;6247892;23;20119;-86
2022/09/16 18:46:43;;;;;;;23.85;3.45;;;;;;;;;;6262283;22;20019;-84
2022/09/16 18:49:11;;;;;;;33.17;4.65;;;;;;;;;;6342485;22;20078;-84
2022/09/16 18:51:38;;;;;;;29.75;3.85;;;;;;;;;;6343411;22;20042;-84
2022/09/16 18:54:06;;;;;;;29.05;4.63;;;;;;;;;;6343420;22;20019;-86
2022/09/16 18:56:36;;;;;;;27.77;4.38;;;;;;;;;;6288541;22;20049;-84
2022/09/16 18:59:03;;;;;;;24.63;3.45;;;;;;;;;;6312851;22;20025;-85
2022/09/16 19:01:36;;;;;;;30.85;3.60;;;;;;;;;;6341156;22;20014;-84
2022/09/16 19:04:12;;;;;;;29.15;3.80;;;;;;;;;;6340689;22;20023;-84
2022/09/16 19:06:39;;;;;;;29.80;3.90;;;;;;;;;;6338326;22;20042;-83
2022/09/16 19:09:35;;;;;;;22.90;3.85;;;;;;;;;;6338733;22;20486;-86
2022/09/16 19:12:09;;;;;;;25.48;3.65;;;;;;;;;;6315064;22;20019;-86
2022/09/16 19:14:35;;;;;;;24.40;3.90;;;;;;;;;;6342279;22;20022;-84
2022/09/16 19:17:02;;;;;;;25.20;4.40;;;;;;;;;;6344221;22;20015;-85
2022/09/16 19:19:32;;;;;;;29.17;4.30;;;;;;;;;;6340483;22;20061;-82
2022/09/16 19:22:04;;;;;;;34.85;6.72;;;;;;;;;;6339922;22;20025;-82
2022/09/16 19:24:31;;;;;;;25.88;3.95;;;;;;;;;;6314335;22;20025;-87
2022/09/16 19:26:57;;;;;;;17.95;3.47;;;;;;;;;;6315138;22;20023;-83
2022/09/16 19:29:31;;;;;;;24.13;3.55;;;;;;;;;;6339820;22;20064;-83
2022/09/16 19:31:57;;;;;;;26.65;4.55;;;;;;;;;;6340931;22;20026;-81
2022/09/16 19:34:23;;;;;;;28.80;3.90;;;;;;;;;;6288777;22;20069;-85
2022/09/16 19:36:49;;;;;;;27.02;4.32;;;;;;;;;;6341199;22;20022;-84
2022/09/16 19:39:15;;;;;;;37.70;4.72;;;;;;;;;;6345275;22;20014;-84
2022/09/16 19:41:42;;;;;;;26.88;4.32;;;;;;;;;;6317871;22;20076;-84
2022/09/16 19:44:34;;;;;;;22.90;4.03;;;;;;;;;;6317013;22;20014;-86
2022/09/16 19:47:01;;;;;;;20.45;3.13;;;;;;;;;;6310519;22;20026;-84
2022/09/16 19:49:27;;;;;;;23.90;4.03;;;;;;;;;;6345321;22;20342;-83
2022/09/16 19:51:59;;;;;;;16.15;3.25;;;;;;;;;;6314334;22;20021;-83
2022/09/16 19:54:26;;;;;;;18.63;3.10;;;;;;;;;;6343454;22;20018;-83
2022/09/16 19:56:52;;;;;;;19.98;3.58;;;;;;;;;;6343727;22;20025;-86
2022/09/16 19:59:18;;;;;;;23.77;3.85;;;;;;;;;;6314869;22;20109;-85
2022/09/16 20:01:44;;;;;;;23.80;3.47;;;;;;;;;;6342428;22;20065;-83
2022/09/16 20:04:10;;;;;;;22.30;3.65;;;;;;;;;;6266704;22;20038;-84
2022/09/16 20:06:38;;;;;;;26.83;4.65;;;;;;;;;;6345596;22;20050;-84
2022/09/16 20:09:06;;;;;;;28.15;3.47;;;;;;;;;;6344019;22;20026;-87
2022/09/16 20:11:34;;;;;;;28.55;4.03;;;;;;;;;;6291371;22;20064;-86
2022/09/16 20:14:07;;;;;;;27.23;3.67;;;;;;;;;;6343463;22;20045;-83
2022/09/16 20:16:35;;;;;;;23.05;3.60;;;;;;;;;;6344877;22;20019;-86
2022/09/16 20:19:05;;;;;;;22.58;3.47;;;;;;;;;;6343465;22;20109;-84
2022/09/16 20:21:33;;;;;;;15.75;3.05;;;;;;;;;;6318421;22;20023;-87
2022/09/16 20:24:00;;;;;;;23.90;3.22;;;;;;;;;;6264295;22;20529;-84
2022/09/16 20:26:26;;;;;;;21.10;3.13;;;;;;;;;;6317674;22;20324;-84
2022/09/16 20:28:53;;;;;;;23.50;3.95;;;;;;;;;;6341567;22;20037;-82
2022/09/16 20:31:23;;;;;;;19.67;3.60;;;;;;;;;;6289608;22;20074;-83
2022/09/16 20:33:50;;;;;;;25.23;3.55;;;;;;;;;;6288633;22;20022;-84
2022/09/16 20:36:17;;;;;;;18.38;3.65;;;;;;;;;;6314411;22;20789;-85
2022/09/16 20:38:50;;;;;;;21.65;3.70;;;;;;;;;;6341688;22;20121;-84
2022/09/16 20:41:20;;;;;;;19.10;3.65;;;;;;;;;;6338909;22;20355;-83
2022/09/16 20:43:46;;;;;;;23.23;3.78;;;;;;;;;;6312768;22;20072;-85
2022/09/16 20:46:14;;;;;;;25.58;3.92;;;;;;;;;;6338139;22;20023;-88
2022/09/16 20:48:44;;;;;;;22.17;3.58;;;;;;;;;;6288283;22;20062;-84
2022/09/16 20:51:14;;;;;;;24.98;3.45;;;;;;;;;;6288209;22;20023;-86
2022/09/16 20:53:43;;;;;;;31.90;4.68;;;;;;;;;;6344843;22;20018;-86
2022/09/16 20:56:15;;;;;;;21.30;3.40;;;;;;;;;;6343312;22;20057;-86
2022/09/16 20:58:43;;;;;;;13.95;2.67;;;;;;;;;;6345136;22;20022;-84
2022/09/16 21:01:15;;;;;;;14.13;2.58;;;;;;;;;;6338167;22;20077;-85
2022/09/16 21:03:42;;;;;;;23.33;3.22;;;;;;;;;;6340788;22;20374;-85
2022/09/16 21:06:09;;;;;;;17.85;2.92;;;;;;;;;;6339329;22;20025;-85
2022/09/16 21:08:36;;;;;;;18.13;2.60;;;;;;;;;;6312177;22;20023;-83
2022/09/16 21:11:10;;;;;;;23.23;3.08;;;;;;;;;;6262352;22;20339;-85
2022/09/16 21:13:38;;;;;;;22.58;3.28;;;;;;;;;;6285821;22;20069;-83
2022/09/16 21:16:04;;;;;;;23.00;3.42;;;;;;;;;;6339630;22;20019;-83
2022/09/16 21:18:43;;;;;;;29.92;4.28;;;;;;;;;;6325855;22;20027;-82
2022/09/16 21:21:18;;;;;;;19.80;3.72;;;;;;;;;;6286713;22;20023;-84
2022/09/16 21:23:51;;;;;;;28.05;2.92;;;;;;;;;;6338729;22;20642;-84
2022/09/16 21:26:21;;;;;;;21.03;3.33;;;;;;;;;;6341091;22;20027;-83
2022/09/16 21:28:52;;;;;;;19.45;2.30;;;;;;;;;;6311064;22;20467;-83
2022/09/16 21:31:27;;;;;;;11.68;2.13;;;;;;;;;;6288937;22;20335;-85
2022/09/16 21:33:53;;;;;;;16.05;2.00;;;;;;;;;;6313225;22;20023;-84
2022/09/16 21:36:20;;;;;;;13.82;2.17;;;;;;;;;;6340663;22;20393;-84
2022/09/16 21:38:47;;;;;;;14.50;2.47;;;;;;;;;;6340997;22;20015;-85
2022/09/16 21:41:14;;;;;;;15.32;1.98;;;;;;;;;;6312558;22;20064;-83
2022/09/16 21:43:42;;;;;;;14.95;2.40;;;;;;;;;;6342263;22;20041;-83
2022/09/16 21:46:19;;;;;;;13.27;2.42;;;;;;;;;;6338395;22;20163;-84
2022/09/16 21:48:46;;;;;;;19.65;2.78;;;;;;;;;;6285398;22;20023;-84
2022/09/16 21:51:13;;;;;;;16.17;2.80;;;;;;;;;;6339192;22;20342;-84
2022/09/16 21:53:42;;;;;;;12.45;3.17;;;;;;;;;;6340236;22;20011;-83
2022/09/16 21:56:14;;;;;;;12.57;1.92;;;;;;;;;;6339606;22;20050;-85
2022/09/16 21:58:40;;;;;;;14.85;2.80;;;;;;;;;;6341877;22;20156;-84
2022/09/16 22:01:23;;;;;;;13.25;2.15;;;;;;;;;;6312847;22;20022;-84
2022/09/16 22:03:56;;;;;;;14.40;3.03;;;;;;;;;;6342039;22;20023;-84
2022/09/16 22:06:24;;;;;;;18.48;2.92;;;;;;;;;;6289995;22;20026;-84
2022/09/16 22:08:51;;;;;;;18.20;2.88;;;;;;;;;;6314407;22;20019;-86
2022/09/16 22:11:18;;;;;;;18.42;3.63;;;;;;;;;;6344661;22;20015;-85
2022/09/16 22:13:44;;;;;;;20.00;2.83;;;;;;;;;;6346871;22;20025;-86
2022/09/16 22:16:12;;;;;;;22.50;3.50;;;;;;;;;;6346646;22;20015;-84
2022/09/16 22:18:39;;;;;;;29.83;3.47;;;;;;;;;;6340971;22;20014;-84
2022/09/16 22:21:08;;;;;;;19.30;2.67;;;;;;;;;;6289197;22;20022;-84
2022/09/16 22:23:36;;;;;;;20.30;2.63;;;;;;;;;;6313114;22;20076;-85
2022/09/16 22:26:05;;;;;;;24.90;3.58;;;;;;;;;;6341822;22;20466;-83
2022/09/16 22:28:32;;;;;;;11.88;2.55;;;;;;;;;;6328450;22;20014;-85
2022/09/16 22:31:08;;;;;;;22.80;3.05;;;;;;;;;;6341651;22;20137;-86
2022/09/16 22:33:35;;;;;;;31.23;3.90;;;;;;;;;;6341140;22;20086;-84
2022/09/16 22:36:05;;;;;;;23.02;3.17;;;;;;;;;;6340155;22;20063;-84
2022/09/16 22:38:31;;;;;;;29.05;3.45;;;;;;;;;;6339554;22;20829;-82
2022/09/16 22:40:59;;;;;;;16.77;2.90;;;;;;;;;;6311402;22;20023;-83
2022/09/16 22:43:28;;;;;;;21.15;3.47;;;;;;;;;;6341239;22;20490;-85
2022/09/16 22:45:54;;;;;;;13.57;2.67;;;;;;;;;;6339367;22;20019;-87
2022/09/16 22:48:26;;;;;;;26.70;2.83;;;;;;;;;;6340746;22;20320;-84
2022/09/16 22:51:05;;;;;;;;;;;;;;;;;;;;;
2022/09/16 22:53:41;;;;;;;27.75;3.88;;;;;;;;;;6340386;22;20089;-86
2022/09/16 22:56:18;;;;;;;21.17;3.60;;;;;;;;;;6311550;22;20026;-85
2022/09/16 22:58:45;;;;;;;28.30;4.30;;;;;;;;;;6341495;22;20118;-84
2022/09/16 23:01:19;;;;;;;22.00;3.60;;;;;;;;;;6311277;22;20065;-85
2022/09/16 23:03:55;;;;;;;24.50;3.35;;;;;;;;;;6341583;22;20010;-84
2022/09/16 23:06:29;;;;;;;21.98;3.55;;;;;;;;;;6287307;22;20045;-85
2022/09/16 23:09:00;;;;;;;26.77;4.03;;;;;;;;;;6339756;22;20477;-84
2022/09/16 23:11:34;;;;;;;19.92;4.15;;;;;;;;;;6340268;22;20406;-86
2022/09/16 23:14:01;;;;;;;22.40;4.53;;;;;;;;;;6310947;22;20423;-84
2022/09/16 23:16:31;;;;;;;19.55;3.85;;;;;;;;;;6338549;22;20023;-84
2022/09/16 23:18:58;;;;;;;14.63;3.05;;;;;;;;;;6340295;22;20019;-85
2022/09/16 23:21:32;;;;;;;26.02;3.15;;;;;;;;;;6287063;22;20443;-84
2022/09/16 23:24:00;;;;;;;17.95;2.58;;;;;;;;;;6339006;22;20608;-83
2022/09/16 23:26:27;;;;;;;20.83;3.67;;;;;;;;;;6285489;22;20027;-84
2022/09/16 23:28:54;;;;;;;23.77;3.50;;;;;;;;;;6339656;22;20026;-84
2022/09/16 23:31:22;;;;;;;25.58;3.67;;;;;;;;;;6339367;22;20482;-85
2022/09/16 23:33:48;;;;;;;28.17;3.90;;;;;;;;;;6310621;22;20450;-86
2022/09/16 23:36:16;;;;;;;21.27;3.78;;;;;;;;;;6312638;22;20019;-86
2022/09/16 23:38:49;;;;;;;25.08;3.38;;;;;;;;;;6311469;22;20451;-84
2022/09/16 23:41:17;;;;;;;24.83;3.80;;;;;;;;;;6284327;22;20030;-87